createdAt,value
2023-05-11T00:00:30.648Z,11.14
2023-05-11T00:02:59.481Z,11.12
2023-05-11T00:05:28.589Z,11.11
2023-05-11T00:07:57.322Z,11.05
2023-05-11T00:10:26.037Z,11.01
2023-05-11T00:12:54.780Z,10.98
2023-05-11T00:15:23.555Z,10.95
2023-05-11T00:17:53.637Z,10.92
2023-05-11T00:20:23.843Z,10.90
2023-05-11T00:22:52.613Z,10.89
2023-05-11T00:25:21.399Z,10.83
2023-05-11T00:27:50.149Z,10.80
2023-05-11T00:30:19.332Z,10.78
2023-05-11T00:32:49.012Z,10.78
2023-05-11T00:35:19.372Z,10.79
2023-05-11T00:37:48.413Z,10.79
2023-05-11T00:40:17.453Z,10.77
2023-05-11T00:42:46.319Z,10.74
2023-05-11T00:45:15.059Z,10.69
2023-05-11T00:47:43.924Z,10.64
2023-05-11T00:50:12.925Z,10.62
2023-05-11T00:52:44.581Z,10.58
2023-05-11T00:55:15.003Z,10.53
2023-05-11T00:57:44.565Z,10.52
2023-05-11T01:00:14.454Z,10.48
2023-05-11T01:02:43.495Z,10.43
2023-05-11T01:05:12.693Z,10.39
2023-05-11T01:07:49.690Z,10.35
2023-05-11T01:10:26.500Z,10.32
2023-05-11T01:13:02.669Z,10.30
2023-05-11T01:15:37.152Z,10.32
2023-05-11T01:18:17.704Z,10.29
2023-05-11T01:20:49.606Z,10.26
2023-05-11T01:23:55.402Z,10.25
2023-05-11T01:26:50.465Z,10.20
2023-05-11T01:29:46.179Z,10.23
2023-05-11T01:32:20.759Z,10.35
2023-05-11T01:35:01.439Z,10.47
2023-05-11T01:37:32.499Z,10.64
2023-05-11T01:40:06.270Z,10.75
2023-05-11T01:42:48.511Z,10.82
2023-05-11T01:45:18.218Z,10.78
2023-05-11T01:47:52.072Z,10.73
2023-05-11T01:50:23.212Z,10.62
2023-05-11T01:52:54.022Z,10.52
2023-05-11T01:55:24.730Z,10.45
2023-05-11T01:57:55.606Z,10.37
2023-05-11T02:00:38.811Z,10.28
2023-05-11T02:03:11.426Z,10.04
2023-05-11T02:05:41.695Z,10.08
2023-05-11T02:08:11.491Z,10.01
2023-05-11T02:10:42.708Z,9.98
2023-05-11T02:13:12.643Z,9.92
2023-05-11T02:15:44.148Z,9.91
2023-05-11T02:18:16.793Z,9.86
2023-05-11T02:20:47.856Z,9.82
2023-05-11T02:23:18.111Z,9.80
2023-05-11T02:25:48.246Z,9.83
2023-05-11T02:28:17.057Z,9.80
2023-05-11T02:30:48.027Z,9.77
2023-05-11T02:33:24.981Z,9.83
2023-05-11T02:35:56.130Z,9.91
2023-05-11T02:38:33.559Z,10.00
2023-05-11T02:41:07.324Z,10.08
2023-05-11T02:43:40.726Z,10.04
2023-05-11T02:46:14.413Z,9.89
2023-05-11T02:48:48.470Z,9.79
2023-05-11T02:51:20.705Z,9.67
2023-05-11T02:53:55.792Z,9.59
2023-05-11T02:56:26.096Z,9.56
2023-05-11T02:58:56.970Z,9.54
2023-05-11T03:01:30.869Z,9.56
2023-05-11T03:04:01.638Z,9.56
2023-05-11T03:06:33.251Z,9.56
2023-05-11T03:09:03.440Z,9.56
2023-05-11T03:11:34.768Z,9.57
2023-05-11T03:14:04.033Z,9.72
2023-05-11T03:16:33.652Z,9.73
2023-05-11T03:19:05.372Z,9.69
2023-05-11T03:21:35.444Z,9.65
2023-05-11T03:24:07.536Z,9.67
2023-05-11T03:26:37.544Z,9.67
2023-05-11T03:29:08.596Z,9.60
2023-05-11T03:31:40.050Z,9.56
2023-05-11T03:34:10.549Z,9.57
2023-05-11T03:36:43.847Z,9.64
2023-05-11T03:39:14.075Z,9.69
2023-05-11T03:41:44.133Z,9.72
2023-05-11T03:44:15.150Z,9.68
2023-05-11T03:46:50.489Z,9.74
2023-05-11T03:49:22.211Z,9.78
2023-05-11T03:51:51.439Z,9.76
2023-05-11T03:54:20.446Z,9.76
2023-05-11T03:56:49.261Z,9.80
2023-05-11T03:59:19.324Z,9.83
2023-05-11T04:01:51.632Z,9.86
2023-05-11T04:04:21.985Z,9.93
2023-05-11T04:06:52.519Z,10.08
2023-05-11T04:09:24.040Z,10.21
2023-05-11T04:11:53.410Z,10.35
2023-05-11T04:14:23.444Z,10.42
2023-05-11T04:16:52.317Z,10.51
2023-05-11T04:19:22.495Z,10.57
2023-05-11T04:21:51.226Z,10.62
2023-05-11T04:24:19.958Z,10.72
2023-05-11T04:26:48.676Z,10.82
2023-05-11T04:29:17.362Z,10.90
2023-05-11T04:31:46.121Z,11.03
2023-05-11T04:34:14.936Z,11.11
2023-05-11T04:36:47.888Z,11.13
2023-05-11T04:39:17.225Z,11.19
2023-05-11T04:41:46.091Z,11.24
2023-05-11T04:44:14.952Z,11.29
2023-05-11T04:46:43.741Z,11.34
2023-05-11T04:49:12.544Z,11.43
2023-05-11T04:51:41.846Z,11.52
2023-05-11T04:54:12.478Z,11.57
2023-05-11T04:56:41.444Z,11.65
2023-05-11T04:59:11.374Z,11.72
2023-05-11T05:01:40.251Z,11.80
2023-05-11T05:04:09.197Z,11.88
2023-05-11T05:06:38.303Z,11.98
2023-05-11T05:09:07.119Z,12.07
2023-05-11T05:11:37.753Z,12.23
2023-05-11T05:14:06.524Z,12.39
2023-05-11T05:16:35.314Z,12.63
2023-05-11T05:19:04.456Z,12.93
2023-05-11T05:21:35.738Z,13.07
2023-05-11T05:24:06.931Z,13.20
2023-05-11T05:26:37.121Z,13.34
2023-05-11T05:29:06.532Z,13.46
2023-05-11T05:31:35.934Z,13.58
2023-05-11T05:34:05.049Z,13.70
2023-05-11T05:36:33.931Z,13.82
2023-05-11T05:39:03.810Z,13.89
2023-05-11T05:41:33.501Z,13.96
2023-05-11T05:44:04.397Z,14.02
2023-05-11T05:46:33.711Z,14.09
2023-05-11T05:49:02.832Z,14.19
2023-05-11T05:51:32.799Z,14.30
2023-05-11T05:54:01.785Z,14.39
2023-05-11T05:56:32.044Z,14.51
2023-05-11T05:59:01.052Z,14.60
2023-05-11T06:01:31.502Z,14.71
2023-05-11T06:04:00.419Z,14.78
2023-05-11T06:06:29.356Z,14.86
2023-05-11T06:08:58.049Z,14.95
2023-05-11T06:11:27.395Z,15.05
2023-05-11T06:13:56.207Z,15.12
2023-05-11T06:16:26.955Z,15.26
2023-05-11T06:18:57.344Z,15.34
2023-05-11T06:21:26.201Z,15.41
2023-05-11T06:23:54.968Z,15.48
2023-05-11T06:26:25.295Z,15.55
2023-05-11T06:28:54.923Z,15.65
2023-05-11T06:31:24.399Z,15.78
2023-05-11T06:33:54.144Z,15.85
2023-05-11T06:36:28.428Z,15.90
2023-05-11T06:38:57.264Z,16.03
2023-05-11T06:41:26.134Z,16.13
2023-05-11T06:43:55.043Z,16.22
2023-05-11T06:46:29.642Z,16.34
2023-05-11T06:48:58.610Z,16.46
2023-05-11T06:51:28.752Z,16.58
2023-05-11T06:53:57.475Z,16.66
2023-05-11T06:56:26.278Z,16.76
2023-05-11T06:58:54.995Z,16.83
2023-05-11T07:01:23.744Z,16.92
2023-05-11T07:03:55.504Z,17.02
2023-05-11T07:06:24.332Z,17.12
2023-05-11T07:08:54.536Z,17.21
2023-05-11T07:11:23.343Z,17.24
2023-05-11T07:13:52.056Z,17.30
2023-05-11T07:16:20.771Z,17.20
2023-05-11T07:18:49.316Z,17.39
2023-05-11T07:21:18.066Z,17.47
2023-05-11T07:23:46.862Z,17.50
2023-05-11T07:26:16.896Z,17.55
2023-05-11T07:28:45.967Z,17.65
2023-05-11T07:31:14.605Z,17.60
2023-05-11T07:33:43.027Z,17.81
2023-05-11T07:36:11.952Z,17.85
2023-05-11T07:38:41.223Z,17.92
2023-05-11T07:41:12.297Z,17.99
2023-05-11T07:43:42.854Z,18.05
2023-05-11T07:46:11.746Z,18.11
2023-05-11T07:48:40.470Z,18.20
2023-05-11T07:51:09.229Z,18.23
2023-05-11T07:53:37.645Z,18.25
2023-05-11T07:56:06.971Z,18.28
2023-05-11T07:58:36.069Z,18.32
2023-05-11T08:01:07.208Z,18.36
2023-05-11T08:03:35.740Z,18.40
2023-05-11T08:06:04.451Z,18.19
2023-05-11T08:08:33.176Z,18.44
2023-05-11T08:11:03.330Z,18.48
2023-05-11T08:13:31.783Z,18.51
2023-05-11T08:16:00.522Z,18.55
2023-05-11T08:18:31.252Z,18.60
2023-05-11T08:21:00.184Z,18.68
2023-05-11T08:23:28.898Z,18.76
2023-05-11T08:25:57.863Z,18.87
2023-05-11T08:28:26.560Z,19.04
2023-05-11T08:30:59.946Z,19.14
2023-05-11T08:36:01.671Z,19.18
2023-05-11T08:38:30.585Z,19.16
2023-05-11T08:40:59.098Z,19.17
2023-05-11T08:43:30.408Z,19.20
2023-05-11T08:46:03.869Z,19.22
2023-05-11T08:48:34.720Z,19.31
2023-05-11T08:51:04.616Z,19.34
2023-05-11T08:53:33.743Z,19.40
2023-05-11T08:56:06.805Z,19.44
2023-05-11T08:58:37.938Z,19.47
2023-05-11T09:01:08.784Z,19.43
2023-05-11T09:03:41.111Z,19.42
2023-05-11T09:06:11.643Z,19.42
2023-05-11T09:08:40.825Z,19.47
2023-05-11T09:11:10.049Z,19.50
2023-05-11T09:13:39.041Z,19.54
2023-05-11T09:16:19.601Z,19.67
2023-05-11T09:19:03.083Z,19.72
2023-05-11T09:21:32.509Z,19.77
2023-05-11T09:24:01.506Z,19.84
2023-05-11T09:26:30.397Z,19.89
2023-05-11T09:29:03.852Z,19.94
2023-05-11T09:31:43.830Z,19.94
2023-05-11T09:34:15.758Z,19.98
2023-05-11T09:36:45.423Z,20.10
2023-05-11T09:39:16.668Z,20.29
2023-05-11T09:41:45.997Z,20.50
2023-05-11T09:44:17.058Z,20.81
2023-05-11T09:46:46.508Z,21.09
2023-05-11T09:49:16.645Z,21.31
2023-05-11T09:51:45.124Z,21.38
2023-05-11T09:54:22.121Z,21.57
2023-05-11T09:56:54.240Z,21.56
2023-05-11T09:59:38.931Z,21.71
2023-05-11T10:02:23.374Z,22.18
2023-05-11T10:04:55.112Z,22.61
2023-05-11T10:07:29.803Z,23.03
2023-05-11T10:10:01.692Z,23.52
2023-05-11T10:12:33.522Z,23.78
2023-05-11T10:15:04.404Z,23.76
2023-05-11T10:17:33.713Z,24.07
2023-05-11T10:20:06.178Z,24.50
2023-05-11T10:22:35.128Z,24.76
2023-05-11T10:25:06.106Z,24.79
2023-05-11T10:27:35.080Z,24.67
2023-05-11T10:30:04.968Z,24.74
2023-05-11T10:32:37.362Z,25.06
2023-05-11T10:35:08.996Z,25.33
2023-05-11T10:37:37.942Z,25.38
2023-05-11T10:40:08.374Z,25.17
2023-05-11T10:43:05.570Z,24.87
2023-05-11T10:45:43.584Z,24.78
2023-05-11T10:48:37.802Z,24.80
2023-05-11T10:51:34.900Z,24.66
2023-05-11T10:54:16.240Z,24.71
2023-05-11T10:57:04.852Z,25.03
2023-05-11T11:00:10.285Z,25.52
2023-05-11T11:02:39.393Z,25.68
2023-05-11T11:05:10.846Z,25.23
2023-05-11T11:08:01.088Z,25.22
2023-05-11T11:10:35.063Z,25.38
2023-05-11T11:13:08.092Z,25.29
2023-05-11T11:16:14.518Z,25.18
2023-05-11T11:18:45.572Z,24.98
2023-05-11T11:21:15.904Z,24.83
2023-05-11T11:23:50.240Z,24.29
2023-05-11T11:26:40.789Z,24.15
2023-05-11T11:29:10.926Z,24.27
2023-05-11T11:31:40.582Z,24.32
2023-05-11T11:34:39.882Z,24.90
2023-05-11T11:37:10.048Z,25.47
2023-05-11T11:40:13.887Z,25.66
2023-05-11T11:42:44.774Z,25.72
2023-05-11T11:45:33.506Z,25.95
2023-05-11T11:48:13.256Z,26.09
2023-05-11T11:50:48.082Z,26.51
2023-05-11T11:54:05.697Z,27.21
2023-05-11T11:56:43.893Z,27.26
2023-05-11T11:59:15.429Z,26.65
2023-05-11T12:01:45.886Z,25.82
2023-05-11T12:04:44.078Z,25.60
2023-05-11T12:07:13.880Z,25.80
2023-05-11T12:09:42.643Z,26.01
2023-05-11T12:12:13.113Z,26.24
2023-05-11T12:14:48.800Z,26.32
2023-05-11T12:17:25.303Z,26.44
2023-05-11T12:19:54.223Z,26.42
2023-05-11T12:22:26.905Z,26.24
2023-05-11T12:25:00.314Z,26.00
2023-05-11T12:27:30.748Z,25.87
2023-05-11T12:30:00.346Z,25.87
2023-05-11T12:32:30.511Z,25.93
2023-05-11T12:35:02.257Z,25.71
2023-05-11T12:37:31.823Z,25.36
2023-05-11T12:40:01.559Z,25.04
2023-05-11T12:42:35.129Z,24.62
2023-05-11T12:45:04.692Z,24.19
2023-05-11T12:47:36.411Z,23.74
2023-05-11T12:50:06.283Z,23.56
2023-05-11T12:52:35.104Z,23.47
2023-05-11T12:55:03.871Z,23.60
2023-05-11T12:57:33.960Z,23.99
2023-05-11T13:00:13.974Z,24.44
2023-05-11T13:02:48.176Z,24.91
2023-05-11T13:05:19.521Z,25.23
2023-05-11T13:07:48.721Z,25.44
2023-05-11T13:10:17.493Z,25.68
2023-05-11T13:12:54.726Z,25.73
2023-05-11T13:15:25.499Z,25.67
2023-05-11T13:17:59.942Z,25.76
2023-05-11T13:20:30.935Z,25.81
2023-05-11T13:23:07.866Z,25.93
2023-05-11T13:25:53.230Z,26.06
2023-05-11T13:28:25.247Z,26.13
2023-05-11T13:31:00.186Z,26.27
2023-05-11T13:33:29.368Z,26.55
2023-05-11T13:35:58.547Z,26.84
2023-05-11T13:38:27.283Z,27.10
2023-05-11T13:40:56.617Z,27.11
2023-05-11T13:43:26.742Z,27.14
2023-05-11T13:45:55.964Z,27.16
2023-05-11T13:48:24.788Z,27.21
2023-05-11T13:50:53.483Z,27.30
2023-05-11T13:53:22.312Z,27.25
2023-05-11T13:55:51.063Z,27.10
2023-05-11T13:58:19.826Z,27.01
2023-05-11T14:01:06.497Z,26.99
2023-05-11T14:03:36.394Z,26.96
2023-05-11T14:06:05.541Z,27.02
2023-05-11T14:08:34.278Z,27.02
2023-05-11T14:11:02.994Z,27.21
2023-05-11T14:13:31.839Z,27.37
2023-05-11T14:16:02.438Z,27.55
2023-05-11T14:18:31.343Z,27.56
2023-05-11T14:21:00.753Z,27.57
2023-05-11T14:23:29.542Z,27.59
2023-05-11T14:25:58.319Z,27.37
2023-05-11T14:28:27.242Z,27.15
2023-05-11T14:30:56.893Z,26.95
2023-05-11T14:33:27.054Z,26.63
2023-05-11T14:35:55.938Z,26.67
2023-05-11T14:38:24.833Z,26.79
2023-05-11T14:40:53.677Z,26.63
2023-05-11T14:43:22.693Z,26.26
2023-05-11T14:45:51.598Z,25.82
2023-05-11T14:48:20.428Z,25.63
2023-05-11T14:50:50.665Z,25.46
2023-05-11T14:53:19.897Z,25.47
2023-05-11T14:55:48.734Z,25.46
2023-05-11T14:58:17.555Z,25.32
2023-05-11T15:00:46.251Z,25.13
2023-05-11T15:03:15.107Z,24.98
2023-05-11T15:05:43.791Z,24.80
2023-05-11T15:08:28.507Z,24.69
2023-05-11T15:10:58.365Z,24.61
2023-05-11T15:13:27.181Z,24.70
2023-05-11T15:15:56.390Z,24.73
2023-05-11T15:18:25.238Z,24.60
2023-05-11T15:20:54.077Z,24.44
2023-05-11T15:23:24.196Z,24.25
2023-05-11T15:25:53.100Z,23.92
2023-05-11T15:28:21.845Z,23.42
2023-05-11T15:30:50.587Z,22.95
2023-05-11T15:33:20.010Z,22.35
2023-05-11T15:35:50.289Z,22.44
2023-05-11T15:38:19.451Z,22.11
2023-05-11T15:40:49.803Z,21.95
2023-05-11T15:43:18.756Z,21.88
2023-05-11T15:45:48.728Z,21.77
2023-05-11T15:48:17.743Z,21.77
2023-05-11T15:50:46.805Z,21.92
2023-05-11T15:53:16.615Z,22.07
2023-05-11T15:55:46.439Z,22.16
2023-05-11T15:58:16.742Z,22.27
2023-05-11T16:00:45.797Z,22.41
2023-05-11T16:03:15.263Z,22.46
2023-05-11T16:05:44.666Z,22.47
2023-05-11T16:08:14.087Z,22.57
2023-05-11T16:10:50.424Z,22.64
2023-05-11T16:13:28.720Z,22.67
2023-05-11T16:16:10.120Z,21.65
2023-05-11T16:18:39.660Z,22.28
2023-05-11T16:21:08.683Z,22.09
2023-05-11T16:23:38.642Z,21.95
2023-05-11T16:26:07.501Z,21.11
2023-05-11T16:28:39.159Z,20.85
2023-05-11T16:31:10.690Z,20.79
2023-05-11T16:33:41.494Z,21.33
2023-05-11T16:36:11.372Z,21.37
2023-05-11T16:38:39.990Z,21.33
2023-05-11T16:41:08.449Z,21.24
2023-05-11T16:43:41.815Z,21.22
2023-05-11T16:46:11.429Z,21.14
2023-05-11T16:48:40.035Z,21.08
2023-05-11T16:51:08.770Z,21.04
2023-05-11T16:53:37.271Z,21.05
2023-05-11T16:56:07.557Z,20.97
2023-05-11T16:58:39.385Z,20.65
2023-05-11T17:01:08.284Z,20.91
2023-05-11T17:03:36.883Z,20.84
2023-05-11T17:06:10.094Z,20.76
2023-05-11T17:08:38.985Z,20.68
2023-05-11T17:11:07.528Z,20.59
2023-05-11T17:13:37.327Z,20.52
2023-05-11T17:16:06.327Z,20.45
2023-05-11T17:18:35.062Z,20.39
2023-05-11T17:21:03.762Z,20.32
2023-05-11T17:23:32.776Z,20.00
2023-05-11T17:26:01.311Z,20.08
2023-05-11T17:28:29.756Z,20.11
2023-05-11T17:30:59.787Z,20.04
2023-05-11T17:33:33.753Z,19.96
2023-05-11T17:36:06.531Z,19.83
2023-05-11T17:38:35.368Z,19.83
2023-05-11T17:41:05.890Z,19.25
2023-05-11T17:43:35.894Z,19.66
2023-05-11T17:46:06.017Z,18.88
2023-05-11T17:48:36.292Z,19.35
2023-05-11T17:51:05.016Z,19.39
2023-05-11T17:53:33.549Z,19.30
2023-05-11T17:56:02.362Z,19.21
2023-05-11T17:58:30.782Z,19.11
2023-05-11T18:01:00.115Z,18.97
2023-05-11T18:03:30.132Z,18.80
2023-05-11T18:05:59.164Z,18.89
2023-05-11T18:08:28.681Z,18.90
2023-05-11T18:10:57.572Z,18.85
2023-05-11T18:13:28.655Z,18.79
2023-05-11T18:15:58.604Z,18.69
2023-05-11T18:18:27.547Z,18.63
2023-05-11T18:20:57.546Z,18.53
2023-05-11T18:23:26.469Z,18.42
2023-05-11T18:25:55.013Z,18.28
2023-05-11T18:28:23.790Z,18.17
2023-05-11T18:30:52.574Z,18.07
2023-05-11T18:33:21.159Z,17.63
2023-05-11T18:35:51.410Z,17.76
2023-05-11T18:38:21.514Z,17.43
2023-05-11T18:40:53.230Z,17.16
2023-05-11T18:43:21.994Z,17.17
2023-05-11T18:45:52.802Z,17.05
2023-05-11T18:48:21.474Z,16.79
2023-05-11T18:50:55.815Z,16.44
2023-05-11T18:53:25.673Z,16.74
2023-05-11T18:55:54.501Z,16.72
2023-05-11T18:58:23.623Z,16.63
2023-05-11T19:00:52.981Z,16.53
2023-05-11T19:03:22.910Z,16.42
2023-05-11T19:05:52.477Z,16.12
2023-05-11T19:08:21.524Z,16.14
2023-05-11T19:10:51.402Z,15.97
2023-05-11T19:13:20.182Z,15.82
2023-05-11T19:15:49.971Z,15.66
2023-05-11T19:18:18.789Z,15.48
2023-05-11T19:20:47.593Z,15.34
2023-05-11T19:23:17.054Z,15.22
2023-05-11T19:25:45.842Z,15.15
2023-05-11T19:28:15.802Z,15.40
2023-05-11T19:30:44.559Z,15.63
2023-05-11T19:33:13.492Z,15.66
2023-05-11T19:35:42.280Z,15.61
2023-05-11T19:38:11.040Z,15.54
2023-05-11T19:43:13.394Z,15.49
2023-05-11T19:45:45.376Z,15.34
2023-05-11T19:48:14.680Z,15.56
2023-05-11T19:50:43.309Z,15.58
2023-05-11T19:53:12.324Z,15.63
2023-05-11T19:55:41.364Z,15.62
2023-05-11T19:58:10.126Z,15.77
2023-05-11T20:00:41.073Z,15.87
2023-05-11T20:03:16.073Z,15.92
2023-05-11T20:05:45.575Z,16.00
2023-05-11T20:08:14.799Z,15.91
2023-05-11T20:10:43.337Z,16.06
2023-05-11T20:13:11.834Z,16.07
2023-05-11T20:15:40.818Z,16.10
2023-05-11T20:18:11.817Z,16.10
2023-05-11T20:20:40.995Z,16.13
2023-05-11T20:23:09.930Z,16.11
2023-05-11T20:25:43.728Z,16.08
2023-05-11T20:28:12.980Z,16.04
2023-05-11T20:30:41.530Z,15.73
2023-05-11T20:35:42.979Z,15.55
2023-05-11T20:38:14.368Z,14.30
2023-05-11T20:40:42.843Z,15.14
2023-05-11T20:43:13.779Z,15.61
2023-05-11T20:45:43.683Z,15.64
2023-05-11T20:48:17.038Z,14.86
2023-05-11T20:50:53.051Z,15.54
2023-05-11T20:53:21.676Z,15.42
2023-05-11T20:55:50.957Z,15.41
2023-05-11T20:58:19.917Z,15.43
2023-05-11T21:00:49.579Z,15.05
2023-05-11T21:03:21.468Z,15.44
2023-05-11T21:05:50.427Z,15.43
2023-05-11T21:08:19.149Z,15.42
2023-05-11T21:10:47.645Z,15.37
2023-05-11T21:13:27.723Z,15.18
2023-05-11T21:15:59.091Z,14.91
2023-05-11T21:18:35.160Z,15.23
2023-05-11T21:21:04.534Z,14.00
2023-05-11T21:23:33.130Z,14.87
2023-05-11T21:26:02.113Z,14.85
2023-05-11T21:28:32.665Z,14.70
2023-05-11T21:31:01.429Z,14.54
2023-05-11T21:33:31.297Z,14.03
2023-05-11T21:36:02.343Z,14.56
2023-05-11T21:38:32.376Z,14.50
2023-05-11T21:41:03.546Z,14.38
2023-05-11T21:43:33.043Z,14.36
2023-05-11T21:46:01.949Z,14.26
2023-05-11T21:48:31.899Z,14.06
2023-05-11T21:51:00.337Z,13.86
2023-05-11T21:53:29.065Z,14.07
2023-05-11T21:55:57.588Z,14.00
2023-05-11T21:58:26.318Z,13.88
2023-05-11T22:00:55.281Z,13.56
2023-05-11T22:03:25.402Z,13.71
2023-05-11T22:05:58.119Z,13.64
2023-05-11T22:08:27.027Z,13.23
2023-05-11T22:10:55.456Z,13.45
2023-05-11T22:13:24.327Z,13.39
2023-05-11T22:15:53.297Z,13.35
2023-05-11T22:18:23.608Z,13.32
2023-05-11T22:20:52.236Z,13.23
2023-05-11T22:23:22.332Z,13.45
2023-05-11T22:25:51.187Z,13.43
2023-05-11T22:28:19.752Z,11.86
2023-05-11T22:30:48.208Z,12.96
2023-05-11T22:33:16.992Z,13.18
2023-05-11T22:35:45.824Z,13.07
2023-05-11T22:38:16.845Z,13.00
2023-05-11T22:40:46.740Z,12.81
2023-05-11T22:43:16.658Z,12.97
2023-05-11T22:45:45.171Z,13.07
2023-05-11T22:48:14.042Z,13.07
2023-05-11T22:50:47.931Z,12.85
2023-05-11T22:53:19.901Z,13.01
2023-05-11T22:55:50.245Z,13.04
2023-05-11T22:58:18.672Z,13.23
2023-05-11T23:00:47.458Z,12.27
2023-05-11T23:03:16.450Z,13.19
2023-05-11T23:05:45.013Z,13.26
2023-05-11T23:08:13.753Z,13.21
2023-05-11T23:10:43.256Z,12.07
2023-05-11T23:13:15.466Z,13.15
2023-05-11T23:15:44.357Z,13.16
2023-05-11T23:18:13.330Z,13.23
2023-05-11T23:20:42.123Z,13.16
2023-05-11T23:23:10.651Z,13.01
2023-05-11T23:25:39.193Z,13.00
2023-05-11T23:28:11.454Z,13.01
2023-05-11T23:30:41.775Z,13.00
2023-05-11T23:33:10.648Z,12.97
2023-05-11T23:35:40.516Z,12.97
2023-05-11T23:38:09.348Z,12.97
2023-05-11T23:40:38.638Z,12.94
2023-05-11T23:43:07.522Z,12.90
2023-05-11T23:45:38.004Z,12.85
2023-05-11T23:48:08.666Z,12.84
2023-05-11T23:50:39.499Z,12.88
2023-05-11T23:53:08.285Z,12.80
2023-05-11T23:55:37.022Z,12.84
2023-05-11T23:58:05.790Z,12.87
